createdAt,value
2023-03-31T00:02:13.964Z,10.24
2023-03-31T00:04:46.737Z,10.24
2023-03-31T00:07:17.926Z,10.25
2023-03-31T00:09:48.893Z,10.27
2023-03-31T00:12:19.775Z,10.27
2023-03-31T00:14:50.519Z,10.29
2023-03-31T00:17:21.441Z,10.30
2023-03-31T00:19:52.311Z,10.32
2023-03-31T00:22:27.548Z,10.34
2023-03-31T00:24:58.335Z,10.35
2023-03-31T00:27:29.516Z,10.37
2023-03-31T00:30:00.296Z,10.40
2023-03-31T00:32:33.500Z,10.44
2023-03-31T00:35:04.544Z,10.47
2023-03-31T00:37:35.568Z,10.44
2023-03-31T00:40:09.998Z,10.44
2023-03-31T00:42:44.024Z,10.47
2023-03-31T00:45:27.452Z,10.50
2023-03-31T00:47:59.883Z,10.51
2023-03-31T00:50:31.899Z,10.49
2023-03-31T00:53:03.243Z,10.47
2023-03-31T00:55:35.491Z,10.49
2023-03-31T00:58:06.240Z,10.50
2023-03-31T01:00:37.187Z,10.52
2023-03-31T01:03:10.264Z,10.57
2023-03-31T01:05:42.488Z,10.53
2023-03-31T01:08:13.934Z,10.53
2023-03-31T01:10:45.381Z,10.49
2023-03-31T01:13:16.666Z,10.46
2023-03-31T01:15:47.564Z,10.40
2023-03-31T01:18:21.394Z,10.36
2023-03-31T01:20:58.287Z,10.28
2023-03-31T01:23:42.818Z,10.21
2023-03-31T01:26:27.110Z,10.22
2023-03-31T01:29:00.035Z,10.24
2023-03-31T01:31:42.749Z,10.25
2023-03-31T01:34:32.994Z,10.22
2023-03-31T01:37:23.287Z,10.22
2023-03-31T01:40:09.117Z,10.21
2023-03-31T01:42:40.102Z,10.23
2023-03-31T01:45:14.459Z,10.24
2023-03-31T01:47:46.134Z,10.22
2023-03-31T01:50:20.551Z,10.17
2023-03-31T01:52:53.421Z,10.12
2023-03-31T01:55:25.581Z,10.09
2023-03-31T01:57:56.654Z,10.10
2023-03-31T02:00:29.581Z,10.12
2023-03-31T02:03:01.886Z,10.11
2023-03-31T02:05:34.024Z,10.09
2023-03-31T02:08:06.449Z,10.05
2023-03-31T02:10:37.365Z,10.06
2023-03-31T02:13:08.252Z,10.08
2023-03-31T02:15:39.542Z,10.11
2023-03-31T02:18:12.379Z,10.12
2023-03-31T02:20:43.570Z,10.07
2023-03-31T02:23:14.923Z,10.05
2023-03-31T02:25:47.762Z,10.05
2023-03-31T02:28:19.928Z,10.06
2023-03-31T02:30:53.172Z,10.08
2023-03-31T02:33:24.097Z,10.07
2023-03-31T02:35:54.966Z,10.09
2023-03-31T02:38:25.721Z,10.13
2023-03-31T02:40:56.624Z,10.15
2023-03-31T02:43:27.537Z,10.18
2023-03-31T02:45:58.339Z,10.20
2023-03-31T02:48:29.795Z,10.23
2023-03-31T02:51:13.908Z,10.25
2023-03-31T02:53:48.805Z,10.28
2023-03-31T02:56:23.997Z,10.28
2023-03-31T02:58:57.892Z,10.28
2023-03-31T03:01:32.427Z,10.29
2023-03-31T03:04:06.333Z,10.27
2023-03-31T03:06:40.375Z,10.24
2023-03-31T03:09:13.554Z,10.19
2023-03-31T03:11:46.798Z,10.17
2023-03-31T03:14:20.221Z,10.15
2023-03-31T03:16:51.810Z,10.10
2023-03-31T03:19:23.019Z,10.03
2023-03-31T03:21:53.799Z,10.00
2023-03-31T03:24:29.506Z,9.91
2023-03-31T03:27:00.527Z,9.76
2023-03-31T03:29:31.658Z,9.62
2023-03-31T03:32:02.345Z,9.52
2023-03-31T03:34:33.074Z,9.46
2023-03-31T03:37:03.929Z,9.43
2023-03-31T03:39:34.764Z,9.40
2023-03-31T03:42:05.533Z,9.32
2023-03-31T03:44:36.308Z,9.27
2023-03-31T03:47:07.430Z,9.21
2023-03-31T03:49:38.061Z,9.19
2023-03-31T03:52:09.067Z,9.21
2023-03-31T03:54:39.757Z,9.23
2023-03-31T03:57:11.142Z,9.25
2023-03-31T03:59:41.961Z,9.20
2023-03-31T04:02:12.956Z,9.15
2023-03-31T04:04:43.809Z,9.17
2023-03-31T04:07:16.563Z,9.14
2023-03-31T04:09:47.407Z,9.11
2023-03-31T04:12:18.352Z,9.09
2023-03-31T04:14:49.104Z,9.04
2023-03-31T04:17:20.534Z,9.00
2023-03-31T04:19:53.077Z,8.98
2023-03-31T04:22:29.395Z,8.97
2023-03-31T04:25:00.462Z,8.95
2023-03-31T04:27:31.188Z,8.92
2023-03-31T04:30:01.976Z,8.92
2023-03-31T04:32:33.317Z,8.87
2023-03-31T04:35:05.131Z,8.83
2023-03-31T04:37:35.851Z,8.82
2023-03-31T04:40:09.353Z,8.79
2023-03-31T04:42:40.128Z,8.78
2023-03-31T04:45:11.551Z,8.81
2023-03-31T04:47:42.588Z,8.82
2023-03-31T04:50:16.090Z,8.79
2023-03-31T04:52:47.919Z,8.74
2023-03-31T04:55:19.059Z,8.73
2023-03-31T04:57:49.952Z,8.71
2023-03-31T05:00:21.949Z,8.70
2023-03-31T05:02:52.945Z,8.69
2023-03-31T05:05:23.945Z,8.66
2023-03-31T05:07:54.783Z,8.68
2023-03-31T05:10:25.544Z,8.74
2023-03-31T05:12:56.453Z,8.80
2023-03-31T05:15:27.376Z,8.84
2023-03-31T05:17:59.220Z,8.86
2023-03-31T05:20:30.243Z,8.92
2023-03-31T05:23:01.320Z,8.94
2023-03-31T05:25:33.793Z,8.99
2023-03-31T05:28:04.952Z,8.99
2023-03-31T05:30:35.848Z,8.95
2023-03-31T05:33:06.735Z,8.89
2023-03-31T05:35:37.589Z,8.83
2023-03-31T05:38:08.617Z,8.75
2023-03-31T05:40:39.449Z,8.66
2023-03-31T05:43:10.193Z,8.66
2023-03-31T05:45:41.031Z,8.60
2023-03-31T05:48:11.897Z,8.49
2023-03-31T05:50:43.269Z,8.39
2023-03-31T05:53:14.142Z,8.30
2023-03-31T05:55:45.009Z,8.28
2023-03-31T05:58:15.816Z,8.28
2023-03-31T06:00:46.812Z,8.29
2023-03-31T06:03:17.682Z,8.28
2023-03-31T06:05:50.479Z,8.26
2023-03-31T06:08:21.457Z,8.28
2023-03-31T06:10:52.510Z,8.28
2023-03-31T06:13:23.417Z,8.29
2023-03-31T06:15:57.772Z,8.30
2023-03-31T06:18:29.828Z,8.28
2023-03-31T06:21:00.631Z,8.23
2023-03-31T06:23:31.605Z,8.19
2023-03-31T06:26:03.742Z,8.15
2023-03-31T06:28:34.650Z,8.15
2023-03-31T06:31:06.294Z,8.15
2023-03-31T06:33:37.487Z,8.13
2023-03-31T06:36:08.697Z,8.17
2023-03-31T06:38:39.708Z,8.12
2023-03-31T06:41:11.335Z,8.13
2023-03-31T06:43:42.396Z,8.18
2023-03-31T06:46:13.297Z,8.21
2023-03-31T06:48:44.254Z,8.20
2023-03-31T06:51:15.147Z,8.17
2023-03-31T06:53:45.978Z,8.10
2023-03-31T06:56:16.819Z,8.07
2023-03-31T06:58:47.557Z,8.05
2023-03-31T07:01:18.246Z,8.02
2023-03-31T07:03:49.496Z,7.94
2023-03-31T07:06:20.538Z,7.87
2023-03-31T07:08:51.392Z,7.85
2023-03-31T07:11:22.346Z,7.88
2023-03-31T07:13:53.209Z,7.90
2023-03-31T07:16:24.048Z,7.85
2023-03-31T07:18:59.761Z,7.87
2023-03-31T07:21:30.625Z,7.90
2023-03-31T07:24:01.426Z,7.94
2023-03-31T07:26:32.292Z,7.94
2023-03-31T07:29:03.370Z,7.93
2023-03-31T07:31:34.516Z,7.95
2023-03-31T07:34:05.483Z,7.95
2023-03-31T07:36:36.334Z,7.90
2023-03-31T07:39:07.325Z,7.88
2023-03-31T07:41:38.222Z,7.94
2023-03-31T07:44:10.194Z,7.98
2023-03-31T07:46:41.191Z,7.97
2023-03-31T07:49:16.159Z,7.98
2023-03-31T07:51:47.052Z,8.03
2023-03-31T07:54:17.833Z,7.98
2023-03-31T07:56:48.594Z,7.97
2023-03-31T07:59:19.899Z,7.97
2023-03-31T08:01:50.717Z,8.04
2023-03-31T08:04:21.612Z,8.11
2023-03-31T08:06:52.369Z,8.16
2023-03-31T08:09:24.722Z,8.20
2023-03-31T08:11:55.335Z,8.25
2023-03-31T08:14:38.075Z,8.37
2023-03-31T08:17:12.372Z,8.51
2023-03-31T08:19:43.335Z,8.64
2023-03-31T08:22:14.131Z,8.76
2023-03-31T08:24:44.997Z,8.92
2023-03-31T08:27:15.878Z,9.04
2023-03-31T08:29:46.656Z,9.13
2023-03-31T08:32:17.580Z,9.21
2023-03-31T08:34:48.359Z,9.27
2023-03-31T08:37:19.077Z,9.34
2023-03-31T08:39:49.929Z,9.39
2023-03-31T08:42:23.335Z,9.46
2023-03-31T08:44:55.800Z,9.52
2023-03-31T08:47:27.225Z,9.60
2023-03-31T08:49:58.991Z,9.74
2023-03-31T08:52:31.218Z,9.87
2023-03-31T08:55:03.226Z,9.99
2023-03-31T08:57:35.108Z,10.10
2023-03-31T09:00:07.399Z,10.23
2023-03-31T09:02:40.744Z,10.40
2023-03-31T09:05:15.717Z,10.61
2023-03-31T09:07:48.737Z,10.83
2023-03-31T09:10:29.236Z,11.01
2023-03-31T09:13:01.760Z,11.22
2023-03-31T09:15:34.264Z,11.49
2023-03-31T09:18:09.068Z,11.79
2023-03-31T09:20:39.984Z,12.10
2023-03-31T09:23:13.949Z,12.33
2023-03-31T09:25:44.767Z,12.65
2023-03-31T09:28:20.613Z,12.95
2023-03-31T09:30:51.485Z,13.15
2023-03-31T09:33:24.457Z,13.16
2023-03-31T09:35:55.280Z,13.32
2023-03-31T09:38:29.701Z,13.46
2023-03-31T09:41:00.866Z,13.57
2023-03-31T09:43:32.041Z,13.63
2023-03-31T09:46:14.727Z,13.57
2023-03-31T09:48:48.735Z,13.46
2023-03-31T09:51:20.396Z,13.41
2023-03-31T09:53:52.133Z,13.41
2023-03-31T09:56:34.578Z,13.46
2023-03-31T09:59:05.571Z,13.49
2023-03-31T10:01:36.585Z,13.51
2023-03-31T10:04:08.544Z,13.47
2023-03-31T10:06:41.468Z,13.49
2023-03-31T10:09:12.401Z,13.49
2023-03-31T10:11:43.214Z,13.48
2023-03-31T10:14:14.514Z,13.46
2023-03-31T10:16:48.053Z,13.49
2023-03-31T10:19:23.041Z,13.58
2023-03-31T10:21:58.636Z,13.62
2023-03-31T10:24:30.428Z,13.63
2023-03-31T10:27:01.171Z,13.65
2023-03-31T10:29:32.237Z,13.71
2023-03-31T10:32:06.681Z,13.78
2023-03-31T10:34:37.620Z,13.89
2023-03-31T10:37:08.529Z,14.02
2023-03-31T10:39:40.097Z,14.06
2023-03-31T10:42:10.919Z,14.08
2023-03-31T10:44:41.632Z,14.03
2023-03-31T10:47:20.438Z,13.99
2023-03-31T10:49:53.305Z,13.99
2023-03-31T10:52:24.574Z,14.06
2023-03-31T10:54:56.958Z,14.19
2023-03-31T10:57:30.811Z,14.31
2023-03-31T11:00:05.978Z,14.40
2023-03-31T11:02:56.309Z,14.45
2023-03-31T11:05:27.658Z,14.50
2023-03-31T11:08:02.715Z,14.56
2023-03-31T11:10:37.785Z,14.63
2023-03-31T11:13:09.041Z,14.68
2023-03-31T11:15:40.905Z,14.72
2023-03-31T11:18:24.863Z,14.78
2023-03-31T11:20:57.632Z,14.86
2023-03-31T11:23:31.736Z,14.91
2023-03-31T11:26:04.350Z,14.97
2023-03-31T11:28:43.794Z,15.11
2023-03-31T11:31:18.524Z,15.30
2023-03-31T11:33:52.651Z,15.52
2023-03-31T11:36:28.768Z,15.68
2023-03-31T11:39:03.855Z,15.86
2023-03-31T11:41:36.623Z,16.11
2023-03-31T11:44:09.575Z,16.36
2023-03-31T11:46:41.398Z,16.69
2023-03-31T11:49:16.040Z,17.17
2023-03-31T11:51:48.841Z,17.55
2023-03-31T11:54:20.251Z,17.81
2023-03-31T11:56:51.652Z,18.21
2023-03-31T11:59:22.397Z,18.53
2023-03-31T12:01:54.659Z,18.81
2023-03-31T12:04:30.908Z,19.17
2023-03-31T12:07:03.678Z,19.53
2023-03-31T12:09:36.756Z,19.83
2023-03-31T12:12:08.654Z,20.05
2023-03-31T12:14:40.683Z,20.30
2023-03-31T12:17:12.842Z,20.46
2023-03-31T12:19:46.429Z,20.67
2023-03-31T12:22:18.276Z,20.61
2023-03-31T12:24:49.097Z,20.52
2023-03-31T12:27:22.050Z,20.73
2023-03-31T12:29:55.511Z,21.11
2023-03-31T12:32:28.038Z,21.14
2023-03-31T12:34:59.775Z,21.12
2023-03-31T12:37:56.169Z,21.31
2023-03-31T12:40:29.069Z,21.53
2023-03-31T12:43:03.369Z,21.71
2023-03-31T12:45:37.186Z,21.75
2023-03-31T12:48:17.240Z,21.81
2023-03-31T12:51:00.515Z,21.78
2023-03-31T12:53:32.894Z,21.43
2023-03-31T12:56:03.919Z,21.16
2023-03-31T12:58:41.810Z,21.13
2023-03-31T13:01:15.215Z,20.89
2023-03-31T13:03:50.546Z,20.76
2023-03-31T13:06:38.874Z,20.69
2023-03-31T13:09:15.595Z,20.71
2023-03-31T13:11:48.349Z,20.75
2023-03-31T13:14:20.921Z,21.06
2023-03-31T13:19:43.562Z,21.50
2023-03-31T13:22:22.263Z,21.81
2023-03-31T13:24:52.978Z,22.17
2023-03-31T13:27:30.790Z,22.46
2023-03-31T13:30:01.743Z,22.53
2023-03-31T13:32:32.572Z,22.44
2023-03-31T13:35:04.745Z,22.20
2023-03-31T13:37:52.999Z,22.26
2023-03-31T13:40:37.102Z,22.36
2023-03-31T13:43:12.235Z,22.40
2023-03-31T13:45:48.536Z,22.40
2023-03-31T13:48:31.391Z,22.24
2023-03-31T13:51:27.866Z,22.07
2023-03-31T13:54:11.376Z,22.19
2023-03-31T13:56:45.341Z,22.21
2023-03-31T13:59:22.417Z,22.30
2023-03-31T14:02:01.742Z,22.14
2023-03-31T14:04:52.275Z,22.23
2023-03-31T14:07:23.362Z,22.41
2023-03-31T14:09:55.154Z,22.54
2023-03-31T14:12:32.574Z,22.52
2023-03-31T14:15:03.812Z,22.35
2023-03-31T14:17:35.503Z,22.27
2023-03-31T14:20:19.892Z,22.24
2023-03-31T14:22:52.242Z,22.27
2023-03-31T14:25:26.534Z,22.19
2023-03-31T14:28:01.129Z,22.06
2023-03-31T14:30:35.455Z,21.99
2023-03-31T14:33:09.187Z,22.04
2023-03-31T14:35:43.113Z,22.18
2023-03-31T14:38:14.815Z,22.28
2023-03-31T14:40:46.903Z,22.21
2023-03-31T14:43:21.092Z,22.11
2023-03-31T14:45:55.230Z,21.91
2023-03-31T14:48:26.001Z,21.71
2023-03-31T14:50:58.330Z,21.58
2023-03-31T14:53:29.240Z,21.55
2023-03-31T14:56:01.395Z,21.41
2023-03-31T14:58:35.015Z,21.29
2023-03-31T15:01:07.083Z,21.28
2023-03-31T15:03:38.527Z,21.22
2023-03-31T15:06:09.602Z,21.15
2023-03-31T15:08:40.868Z,21.04
2023-03-31T15:11:15.468Z,20.88
2023-03-31T15:14:00.880Z,20.75
2023-03-31T15:16:38.124Z,20.64
2023-03-31T15:19:13.086Z,20.52
2023-03-31T15:21:44.063Z,20.39
2023-03-31T15:24:15.057Z,20.25
2023-03-31T15:26:47.206Z,20.17
2023-03-31T15:29:19.060Z,20.11
2023-03-31T15:31:49.902Z,20.06
2023-03-31T15:34:23.424Z,20.06
2023-03-31T15:36:56.787Z,20.08
2023-03-31T15:39:27.708Z,20.09
2023-03-31T15:41:58.445Z,20.10
2023-03-31T15:44:37.894Z,20.06
2023-03-31T15:47:10.007Z,20.04
2023-03-31T15:49:42.289Z,20.04
2023-03-31T15:52:21.855Z,20.04
2023-03-31T15:54:52.726Z,20.01
2023-03-31T15:57:23.552Z,19.98
2023-03-31T15:59:57.104Z,19.89
2023-03-31T16:02:28.618Z,19.80
2023-03-31T16:05:00.701Z,19.73
2023-03-31T16:07:32.924Z,19.65
2023-03-31T16:10:04.558Z,19.62
2023-03-31T16:12:36.133Z,19.60
2023-03-31T16:15:08.018Z,19.60
2023-03-31T16:17:39.982Z,19.58
2023-03-31T16:20:12.330Z,19.52
2023-03-31T16:22:43.591Z,19.50
2023-03-31T16:25:15.235Z,19.49
2023-03-31T16:27:47.985Z,19.44
2023-03-31T16:30:20.908Z,19.38
2023-03-31T16:33:05.296Z,19.31
2023-03-31T16:35:37.146Z,19.23
2023-03-31T16:38:08.240Z,19.18
2023-03-31T16:40:39.697Z,19.12
2023-03-31T16:43:11.464Z,19.00
2023-03-31T16:45:42.701Z,18.93
2023-03-31T16:48:16.807Z,18.87
2023-03-31T16:50:48.795Z,18.79
2023-03-31T16:53:20.487Z,18.75
2023-03-31T16:55:51.418Z,18.70
2023-03-31T16:58:24.235Z,18.66
2023-03-31T17:00:55.806Z,18.63
2023-03-31T17:03:27.653Z,18.58
2023-03-31T17:05:59.572Z,18.52
2023-03-31T17:08:31.400Z,18.49
2023-03-31T17:11:03.744Z,18.46
2023-03-31T17:13:34.585Z,18.41
2023-03-31T17:16:18.606Z,18.35
2023-03-31T17:18:54.979Z,18.31
2023-03-31T17:21:26.353Z,18.25
2023-03-31T17:23:57.242Z,18.19
2023-03-31T17:26:28.195Z,18.13
2023-03-31T17:29:00.769Z,18.11
2023-03-31T17:31:32.065Z,18.08
2023-03-31T17:34:02.991Z,18.02
2023-03-31T17:36:33.829Z,17.93
2023-03-31T17:39:05.205Z,17.83
2023-03-31T17:41:39.080Z,17.75
2023-03-31T17:44:09.964Z,17.68
2023-03-31T17:46:40.926Z,17.63
2023-03-31T17:49:11.792Z,17.58
2023-03-31T17:51:43.842Z,17.55
2023-03-31T17:54:14.709Z,17.52
2023-03-31T17:56:50.321Z,17.49
2023-03-31T17:59:24.162Z,17.44
2023-03-31T18:01:55.300Z,17.39
2023-03-31T18:04:26.275Z,17.37
2023-03-31T18:06:57.600Z,17.35
2023-03-31T18:09:29.537Z,17.30
2023-03-31T18:12:00.438Z,17.21
2023-03-31T18:14:31.539Z,17.16
2023-03-31T18:17:02.473Z,17.12
2023-03-31T18:19:33.706Z,17.10
2023-03-31T18:22:04.650Z,17.07
2023-03-31T18:24:37.249Z,17.02
2023-03-31T18:27:08.126Z,16.95
2023-03-31T18:29:39.978Z,16.88
2023-03-31T18:32:12.603Z,16.81
2023-03-31T18:34:43.736Z,16.74
2023-03-31T18:37:14.761Z,16.71
2023-03-31T18:39:45.981Z,16.67
2023-03-31T18:42:18.514Z,16.65
2023-03-31T18:44:49.845Z,16.68
2023-03-31T18:47:23.543Z,16.69
2023-03-31T18:50:07.338Z,16.68
2023-03-31T18:52:39.854Z,16.67
2023-03-31T18:55:12.550Z,16.65
2023-03-31T18:57:49.455Z,16.60
2023-03-31T19:00:25.397Z,16.54
2023-03-31T19:02:57.030Z,16.45
2023-03-31T19:05:30.786Z,16.39
2023-03-31T19:08:02.963Z,16.34
2023-03-31T19:10:37.279Z,16.30
2023-03-31T19:13:10.292Z,16.26
2023-03-31T19:15:45.547Z,16.22
2023-03-31T19:18:18.762Z,16.18
2023-03-31T19:20:51.131Z,16.14
2023-03-31T19:23:24.479Z,16.04
2023-03-31T19:26:00.247Z,15.97
2023-03-31T19:28:33.018Z,15.92
2023-03-31T19:31:11.373Z,15.86
2023-03-31T19:33:50.591Z,15.82
2023-03-31T19:36:25.532Z,15.78
2023-03-31T19:39:12.501Z,15.70
2023-03-31T19:41:46.485Z,15.61
2023-03-31T19:44:17.355Z,15.53
2023-03-31T19:46:51.757Z,15.45
2023-03-31T19:49:29.984Z,15.41
2023-03-31T19:52:04.443Z,15.39
2023-03-31T19:54:37.656Z,15.34
2023-03-31T19:57:09.166Z,15.32
2023-03-31T19:59:41.295Z,15.29
2023-03-31T20:02:15.616Z,15.28
2023-03-31T20:04:51.956Z,15.26
2023-03-31T20:07:24.810Z,15.20
2023-03-31T20:10:00.212Z,15.03
2023-03-31T20:12:35.852Z,14.95
2023-03-31T20:15:13.852Z,14.94
2023-03-31T20:17:52.644Z,14.93
2023-03-31T20:20:26.086Z,14.88
2023-03-31T20:22:56.858Z,14.84
2023-03-31T20:25:27.684Z,14.81
2023-03-31T20:27:58.610Z,14.77
2023-03-31T20:30:29.428Z,14.71
2023-03-31T20:33:00.309Z,14.65
2023-03-31T20:35:31.483Z,14.59
2023-03-31T20:38:02.653Z,14.53
2023-03-31T20:40:33.626Z,14.49
2023-03-31T20:43:05.176Z,14.43
2023-03-31T20:45:37.904Z,14.39
2023-03-31T20:48:08.790Z,14.34
2023-03-31T20:50:40.370Z,14.30
2023-03-31T20:53:11.399Z,14.27
2023-03-31T20:55:42.642Z,14.25
2023-03-31T20:58:13.462Z,14.23
2023-03-31T21:00:46.819Z,14.19
2023-03-31T21:03:19.086Z,14.06
2023-03-31T21:05:52.240Z,13.94
2023-03-31T21:08:34.175Z,13.91
2023-03-31T21:11:06.564Z,13.89
2023-03-31T21:13:40.091Z,13.89
2023-03-31T21:16:15.621Z,13.88
2023-03-31T21:18:49.525Z,13.85
2023-03-31T21:21:25.108Z,13.80
2023-03-31T21:23:59.676Z,13.74
2023-03-31T21:26:34.308Z,13.71
2023-03-31T21:29:06.442Z,13.68
2023-03-31T21:31:43.195Z,13.68
2023-03-31T21:34:16.882Z,13.68
2023-03-31T21:36:50.320Z,13.65
2023-03-31T21:39:37.827Z,13.62
2023-03-31T21:48:25.407Z,13.56
2023-03-31T21:50:56.511Z,13.50
2023-03-31T21:53:32.356Z,13.47
2023-03-31T21:56:08.318Z,13.45
2023-03-31T21:58:39.377Z,13.40
2023-03-31T22:01:10.776Z,13.31
2023-03-31T22:03:43.540Z,13.21
2023-03-31T22:06:15.304Z,13.13
2023-03-31T22:08:46.888Z,13.09
2023-03-31T22:11:18.232Z,13.08
2023-03-31T22:13:49.010Z,13.06
2023-03-31T22:16:20.799Z,13.01
2023-03-31T22:18:51.670Z,12.98
2023-03-31T22:21:23.664Z,12.94
2023-03-31T22:23:54.494Z,12.91
2023-03-31T22:26:26.065Z,12.90
2023-03-31T22:28:57.062Z,12.90
2023-03-31T22:31:28.621Z,12.89
2023-03-31T22:33:59.541Z,12.90
2023-03-31T22:36:30.373Z,12.88
2023-03-31T22:39:01.395Z,12.87
2023-03-31T22:41:32.238Z,12.85
2023-03-31T22:44:03.169Z,12.82
2023-03-31T22:46:34.360Z,12.77
2023-03-31T22:49:05.380Z,12.74
2023-03-31T22:51:36.566Z,12.69
2023-03-31T22:54:07.425Z,12.65
2023-03-31T22:56:38.294Z,12.64
2023-03-31T22:59:09.105Z,12.63
2023-03-31T23:01:39.957Z,12.62
2023-03-31T23:04:11.167Z,12.59
2023-03-31T23:06:42.198Z,12.58
2023-03-31T23:09:13.037Z,12.56
2023-03-31T23:11:45.153Z,12.55
2023-03-31T23:14:16.069Z,12.53
2023-03-31T23:16:46.870Z,12.50
2023-03-31T23:19:19.564Z,12.49
2023-03-31T23:21:50.500Z,12.47
2023-03-31T23:24:23.092Z,12.46
2023-03-31T23:26:53.917Z,12.48
2023-03-31T23:29:24.825Z,12.48
2023-03-31T23:31:55.910Z,12.43
2023-03-31T23:34:26.744Z,12.37
2023-03-31T23:36:57.634Z,12.31
2023-03-31T23:39:28.586Z,12.29
2023-03-31T23:41:59.341Z,12.29
2023-03-31T23:44:30.524Z,12.25
2023-03-31T23:47:01.447Z,12.15
2023-03-31T23:49:32.751Z,12.11
2023-03-31T23:52:03.491Z,12.11
2023-03-31T23:54:34.454Z,12.09
2023-03-31T23:57:05.362Z,12.06
2023-03-31T23:59:36.551Z,12.01
